Time;durP1;ratioP1;P1;durP2;ratioP2;P2;SDS_P1;SDS_P2;PMS_P1;PMS_P2;Temp;Humidity;BMP_temperature;BMP_pressure;BME280_temperature;BME280_humidity;BME280_pressure;Samples;Min_cycle;Max_cycle;Signal;HPM_P1;HPM_P2
2022/04/01 00:00:26;;;;;;;38.20;20.58;;;;;;;12.47;98.06;97361.41;4456755;32;35914;-77
2022/04/01 00:03:13;;;;;;;35.50;21.00;;;;;;;12.69;97.37;97363.16;4446805;32;34531;-77
2022/04/01 00:05:59;;;;;;;35.83;20.77;;;;;;;13.04;95.95;97357.13;4445546;32;34251;-77
2022/04/01 00:08:46;;;;;;;33.15;21.00;;;;;;;12.97;95.69;97361.78;4447109;32;34703;-77
2022/04/01 00:11:32;;;;;;;33.63;21.42;;;;;;;13.20;94.40;97356.81;4446389;32;35544;-77
2022/04/01 00:14:19;;;;;;;33.70;20.33;;;;;;;13.21;93.72;97357.66;4447273;32;35135;-77
2022/04/01 00:17:06;;;;;;;36.22;20.15;;;;;;;12.94;94.38;97366.09;4448689;32;33666;-77
2022/04/01 00:19:52;;;;;;;35.33;21.58;;;;;;;12.86;94.96;97367.19;4449669;32;36330;-77
2022/04/01 00:22:38;;;;;;;34.85;20.83;;;;;;;12.82;95.14;97358.16;4446562;32;35024;-77
2022/04/01 00:25:24;;;;;;;38.60;22.77;;;;;;;12.77;96.11;97355.75;4448620;32;34496;-77
2022/04/01 00:28:10;;;;;;;41.33;22.65;;;;;;;12.87;95.12;97357.03;4444553;32;33713;-77
2022/04/01 00:30:58;;;;;;;35.60;21.25;;;;;;;12.11;98.71;97348.13;4450214;32;35422;-77
2022/04/01 00:33:45;;;;;;;36.65;22.13;;;;;;;12.69;97.39;97349.41;4438444;32;34986;-77
2022/04/01 00:36:32;;;;;;;40.33;22.40;;;;;;;12.79;96.34;97343.22;4449963;32;34623;-77
2022/04/01 00:39:19;;;;;;;40.97;21.98;;;;;;;12.95;95.68;97350.38;4451414;32;34272;-77
2022/04/01 00:42:06;;;;;;;36.97;22.98;;;;;;;13.07;94.21;97349.31;4449800;32;35606;-77
2022/04/01 00:44:52;;;;;;;41.55;22.60;;;;;;;12.83;95.29;97340.50;4452024;32;34934;-78
2022/04/01 00:47:39;;;;;;;49.17;23.42;;;;;;;12.75;95.84;97342.41;4449690;32;35414;-80
2022/04/01 00:50:25;;;;;;;46.47;24.58;;;;;;;12.75;96.03;97325.13;4449396;32;33787;-79
2022/04/01 00:53:12;;;;;;;41.67;22.52;;;;;;;13.07;94.71;97333.59;4450861;32;34741;-79
2022/04/01 00:55:58;;;;;;;46.45;24.20;;;;;;;12.95;94.85;97344.88;4448865;32;35838;-79
2022/04/01 00:58:44;;;;;;;41.47;22.23;;;;;;;12.99;94.77;97335.50;4447635;32;34753;-79
2022/04/01 01:01:31;;;;;;;47.20;23.80;;;;;;;12.83;95.10;97338.56;4449005;32;33076;-79
2022/04/01 01:04:19;;;;;;;45.45;23.23;;;;;;;12.34;97.77;97336.16;4446768;32;34706;-79
2022/04/01 01:07:06;;;;;;;45.22;24.05;;;;;;;12.74;96.98;97331.78;4448731;32;35916;-79
2022/04/01 01:09:57;;;;;;;41.03;22.58;;;;;;;12.94;95.25;97338.59;4448674;32;34113;-79
2022/04/01 01:12:44;;;;;;;49.33;23.45;;;;;;;12.94;95.23;97349.59;4450878;32;34852;-78
2022/04/01 01:15:30;;;;;;;60.50;26.15;;;;;;;12.79;95.44;97350.69;4449595;32;34163;-78
2022/04/01 01:18:17;;;;;;;47.80;23.92;;;;;;;12.12;99.14;97341.47;4448403;32;34551;-78
2022/04/01 01:21:04;;;;;;;51.47;24.35;;;;;;;12.54;98.78;97347.72;4448913;32;35363;-78
2022/04/01 01:23:51;;;;;;;44.33;23.85;;;;;;;12.36;99.14;97342.09;4449783;32;33083;-78
2022/04/01 01:26:39;;;;;;;45.67;23.08;;;;;;;12.59;97.84;97339.94;4449131;32;34615;-79
2022/04/01 01:29:29;;;;;;;43.85;22.13;;;;;;;12.76;96.71;97343.19;4448562;32;35052;-80
2022/04/01 01:32:19;;;;;;;44.70;22.70;;;;;;;12.70;97.06;97337.28;4436469;32;34523;-80
2022/04/01 01:35:08;;;;;;;50.00;24.35;;;;;;;12.66;97.40;97343.88;4448290;32;33713;-80
2022/04/01 01:37:55;;;;;;;48.92;22.87;;;;;;;12.57;97.45;97344.22;4451477;32;35634;-80
2022/04/01 01:40:42;;;;;;;41.75;22.17;;;;;;;12.50;98.02;97336.72;4448971;32;36097;-80
2022/04/01 01:43:29;;;;;;;53.70;24.33;;;;;;;12.71;97.56;97338.06;4448814;32;33357;-80
2022/04/01 01:46:16;;;;;;;46.60;24.98;;;;;;;12.31;99.71;97339.69;4449108;32;35152;-80
2022/04/01 01:49:03;;;;;;;84.07;24.45;;;;;;;12.81;97.07;97338.12;4451911;32;34518;-80
2022/04/01 01:54:55;;;;;;;48.50;23.17;;;;;;;11.86;100.00;97338.81;4445360;32;35697;-79
2022/04/01 01:57:41;;;;;;;53.22;24.23;;;;;;;12.47;99.83;97348.47;4449248;32;35174;-80
2022/04/01 02:00:28;;;;;;;52.90;24.52;;;;;;;12.50;99.06;97341.44;4453544;32;35538;-80
2022/04/01 02:03:14;;;;;;;47.62;23.70;;;;;;;12.38;99.26;97335.06;4463969;32;35002;-80
2022/04/01 02:06:03;;;;;;;44.45;23.27;;;;;;;12.40;99.83;97331.91;4448038;32;34040;-80
2022/04/01 02:08:50;;;;;;;44.83;22.87;;;;;;;12.70;98.88;97339.22;4448095;32;35120;-80
2022/04/01 02:11:37;;;;;;;45.05;23.98;;;;;;;12.84;98.10;97339.34;4455963;32;35612;-80
2022/04/01 02:14:24;;;;;;;54.38;23.85;;;;;;;12.89;96.69;97335.44;4448820;32;35998;-80
2022/04/01 02:17:10;;;;;;;52.65;25.12;;;;;;;12.68;97.52;97330.56;4463255;32;34090;-80
2022/04/01 02:19:58;;;;;;;44.58;23.85;;;;;;;12.34;99.40;97330.69;4463573;32;33796;-79
2022/04/01 02:22:45;;;;;;;45.17;24.58;;;;;;;12.79;97.87;97334.19;4448963;32;34665;-78
2022/04/01 02:25:31;;;;;;;42.85;23.17;;;;;;;12.93;96.73;97328.00;4453752;32;34974;-78
2022/04/01 02:28:17;;;;;;;42.78;23.35;;;;;;;13.05;96.16;97328.47;4450526;32;34468;-78
2022/04/01 02:31:05;;;;;;;43.63;23.83;;;;;;;12.99;95.74;97321.75;4447195;32;35146;-79
2022/04/01 02:33:56;;;;;;;;;;;;;;;12.64;97.34;97321.53;4452027;32;34643;-79
2022/04/01 02:36:43;;;;;;;50.58;23.42;;;;;;;12.43;98.80;97309.19;4448147;32;35151;-77
2022/04/01 02:39:30;;;;;;;48.42;24.85;;;;;;;12.04;100.00;97304.16;4448254;32;34580;-78
2022/04/01 02:42:16;;;;;;;48.38;25.75;;;;;;;11.96;100.00;97299.75;4450299;32;34266;-79
2022/04/01 02:45:04;;;;;;;42.67;23.23;;;;;;;12.26;100.00;97299.62;4449044;32;34688;-79
2022/04/01 02:47:51;;;;;;;37.65;21.30;;;;;;;12.69;99.17;97299.16;4448575;32;35069;-80
2022/04/01 02:50:39;;;;;;;34.50;19.40;;;;;;;12.89;97.46;97303.22;4450784;32;32195;-80
2022/04/01 02:53:26;;;;;;;35.90;20.25;;;;;;;12.95;96.59;97307.22;4454464;32;34677;-80
2022/04/01 02:56:12;;;;;;;35.67;20.48;;;;;;;12.96;96.24;97305.25;4456801;32;35454;-80
2022/04/01 02:59:00;;;;;;;34.72;19.10;;;;;;;12.73;97.33;97305.50;4452481;32;36119;-80
2022/04/01 03:01:46;;;;;;;36.80;19.25;;;;;;;12.74;98.04;97298.81;4461706;32;34049;-79
2022/04/01 03:04:33;;;;;;;34.80;19.25;;;;;;;12.82;96.39;97293.00;4446418;32;33780;-80
2022/04/01 03:07:20;;;;;;;35.67;19.48;;;;;;;12.53;97.84;97289.25;4447721;32;35603;-79
2022/04/01 03:10:06;;;;;;;39.13;20.17;;;;;;;12.50;98.47;97286.50;4448591;32;35973;-79
2022/04/01 03:12:53;;;;;;;36.35;19.20;;;;;;;12.73;97.58;97289.00;4448794;32;34211;-79
2022/04/01 03:15:40;;;;;;;33.33;19.67;;;;;;;12.76;97.69;97293.75;4447950;32;34221;-79
2022/04/01 03:18:29;;;;;;;32.20;18.33;;;;;;;12.94;96.53;97302.87;4447448;32;34615;-80
2022/04/01 03:21:15;;;;;;;27.67;17.48;;;;;;;12.98;94.95;97316.66;4452764;32;34477;-80
2022/04/01 03:24:02;;;;;;;31.08;18.00;;;;;;;12.79;95.70;97320.44;4446563;32;34477;-79
2022/04/01 03:26:49;;;;;;;31.87;19.00;;;;;;;12.40;97.48;97309.94;4455519;32;34242;-80
2022/04/01 03:29:36;;;;;;;32.10;17.98;;;;;;;12.07;100.00;97289.66;4463223;32;34662;-79
2022/04/01 03:32:22;;;;;;;31.83;16.60;;;;;;;12.12;100.00;97278.34;4449048;32;34736;-79
2022/04/01 03:35:15;;;;;;;26.73;15.95;;;;;;;11.98;100.00;97278.22;4448137;32;34558;-79
2022/04/01 03:38:01;;;;;;;24.37;15.02;;;;;;;12.51;98.48;97294.34;4453748;32;34218;-80
2022/04/01 03:40:49;;;;;;;21.70;14.10;;;;;;;12.45;98.69;97306.84;4448204;32;34467;-81
2022/04/01 03:43:36;;;;;;;22.25;14.10;;;;;;;12.56;98.29;97302.22;4446854;32;35978;-81
2022/04/01 03:46:24;;;;;;;22.05;15.10;;;;;;;12.71;96.99;97305.88;4445528;32;35028;-80
2022/04/01 03:49:13;;;;;;;21.15;14.18;;;;;;;12.54;97.67;97303.78;4446740;32;35137;-80
2022/04/01 03:52:01;;;;;;;21.58;13.20;;;;;;;12.70;97.82;97307.03;4445861;32;34555;-80
2022/04/01 03:54:49;;;;;;;20.27;13.55;;;;;;;12.58;98.40;97307.34;4447357;32;35886;-80
2022/04/01 03:57:41;;;;;;;20.62;13.27;;;;;;;12.67;97.81;97305.06;4449739;32;34618;-80
2022/04/01 04:00:34;;;;;;;19.50;12.95;;;;;;;12.96;96.70;97306.03;4460364;31;35165;-80
2022/04/01 04:03:23;;;;;;;18.23;12.02;;;;;;;12.57;98.06;97312.03;4469592;32;34145;-80
2022/04/01 04:06:09;;;;;;;18.00;11.82;;;;;;;12.79;97.45;97303.97;4470156;32;34606;-80
2022/04/01 04:08:57;;;;;;;16.67;11.63;;;;;;;13.00;96.01;97304.09;4467566;31;34699;-80
2022/04/01 04:11:44;;;;;;;18.45;11.50;;;;;;;13.02;95.22;97307.25;4478964;31;34237;-80
2022/04/01 04:14:32;;;;;;;18.02;12.68;;;;;;;12.62;97.49;97299.91;4468216;32;34653;-79
2022/04/01 04:17:27;;;;;;;22.75;13.15;;;;;;;11.75;100.00;97274.78;4468726;32;34918;-79
2022/04/01 04:20:28;;;;;;;25.98;16.00;;;;;;;10.90;100.00;97270.66;4468665;32;34491;-79
2022/04/01 04:23:25;;;;;;;24.35;15.65;;;;;;;10.43;100.00;97269.19;4457714;32;34131;-84
2022/04/01 04:26:16;;;;;;;22.90;14.93;;;;;;;11.44;100.00;97274.88;4469302;32;35584;-83
2022/04/01 04:29:08;;;;;;;23.02;13.88;;;;;;;11.88;100.00;97271.44;4480892;32;35500;-84
2022/04/01 04:32:04;;;;;;;21.02;13.57;;;;;;;11.97;100.00;97271.13;4466823;31;36002;-84
2022/04/01 04:34:51;;;;;;;21.37;13.25;;;;;;;12.34;100.00;97264.78;4469165;32;33678;-83
2022/04/01 04:37:47;;;;;;;24.40;14.43;;;;;;;12.66;100.00;97273.25;4463192;32;34177;-83
2022/04/01 04:40:37;;;;;;;19.70;13.60;;;;;;;11.95;100.00;97276.19;4463072;32;35228;-82
2022/04/01 04:43:24;;;;;;;26.12;14.15;;;;;;;12.06;100.00;97284.53;4464104;32;34572;-82
2022/04/01 04:46:11;;;;;;;37.65;16.37;;;;;;;11.82;100.00;97288.59;4470781;32;34775;-83
2022/04/01 04:48:58;;;;;;;24.55;14.48;;;;;;;11.37;100.00;97288.47;4469775;32;34469;-83
2022/04/01 04:51:48;;;;;;;27.37;15.40;;;;;;;11.92;100.00;97290.66;4483815;32;35182;-83
2022/04/01 04:54:40;;;;;;;31.37;16.77;;;;;;;11.83;100.00;97293.69;4465324;32;35450;-83
2022/04/01 04:57:28;;;;;;;23.95;15.82;;;;;;;10.55;100.00;97298.31;4479331;31;34541;-82
2022/04/01 05:00:19;;;;;;;36.70;17.25;;;;;;;10.96;100.00;97301.28;4458046;31;34135;-83
2022/04/01 05:03:24;;;;;;;29.65;17.60;;;;;;;10.91;100.00;97296.09;4471065;32;36577;-80
2022/04/01 05:06:11;;;;;;;26.35;16.40;;;;;;;11.06;100.00;97299.81;4471434;32;34613;-80
2022/04/01 05:09:05;;;;;;;27.25;16.52;;;;;;;11.34;100.00;97299.41;4472379;31;34223;-81
2022/04/01 05:11:52;;;;;;;34.00;17.27;;;;;;;11.64;100.00;97305.66;4471862;32;35634;-80
2022/04/01 05:15:04;;;;;;;33.20;17.62;;;;;;;10.80;100.00;97310.44;4471724;32;35909;-80
2022/04/01 05:18:10;;;;;;;33.40;18.60;;;;;;;10.41;100.00;97312.56;4482119;32;34854;-80
2022/04/01 05:21:02;;;;;;;31.58;16.90;;;;;;;9.91;100.00;97314.41;4461598;32;35077;-81
2022/04/01 05:23:55;;;;;;;31.27;17.45;;;;;;;10.50;100.00;97309.56;4447821;31;35730;-81
2022/04/01 05:26:43;;;;;;;39.65;19.00;;;;;;;10.24;100.00;97319.28;4467220;32;35994;-83
2022/04/01 05:29:37;;;;;;;37.47;19.50;;;;;;;9.15;100.00;97316.81;4468493;32;36034;-84
2022/04/01 05:32:28;;;;;;;41.17;18.47;;;;;;;9.18;100.00;97316.88;4480222;31;34153;-82
2022/04/01 05:35:16;;;;;;;38.47;18.73;;;;;;;9.34;100.00;97316.06;4469213;32;33630;-81
2022/04/01 05:38:02;;;;;;;42.92;19.23;;;;;;;9.00;100.00;97308.31;4468490;32;34994;-86
2022/04/01 05:40:50;;;;;;;40.50;17.67;;;;;;;8.93;100.00;97308.16;4466658;32;35441;-82
2022/04/01 05:43:38;;;;;;;40.03;17.73;;;;;;;8.84;100.00;97307.56;4445822;32;35100;-81
2022/04/01 05:46:26;;;;;;;39.85;16.90;;;;;;;8.83;100.00;97310.66;4467064;32;34166;-83
2022/04/01 05:49:14;;;;;;;35.67;15.73;;;;;;;8.79;100.00;97305.09;4479404;31;34939;-82
2022/04/01 05:52:01;;;;;;;38.25;16.45;;;;;;;9.33;100.00;97306.25;4468274;32;34585;-83
2022/04/01 05:54:49;;;;;;;35.15;14.75;;;;;;;8.93;100.00;97310.87;4469039;32;34137;-80
2022/04/01 05:57:35;;;;;;;30.58;12.65;;;;;;;8.73;100.00;97314.72;4459523;32;35104;-80
2022/04/01 06:00:22;;;;;;;36.33;14.90;;;;;;;9.03;100.00;97323.22;4459007;31;35015;-81
2022/04/01 06:03:28;;;;;;;22.25;11.52;;;;;;;8.99;100.00;97331.34;4456202;32;34409;-81
2022/04/01 06:06:32;;;;;;;19.70;9.93;;;;;;;8.77;100.00;97323.81;4468130;32;34949;-81
2022/04/01 06:09:59;;;;;;;17.67;8.75;;;;;;;8.39;100.00;97319.00;4477597;31;35573;-81
2022/04/01 06:13:16;;;;;;;18.75;9.52;;;;;;;8.70;100.00;97318.16;4468482;32;35966;-81
2022/04/01 06:16:30;;;;;;;21.67;8.75;;;;;;;8.44;100.00;97308.59;4478641;31;34646;-81
2022/04/01 06:19:41;;;;;;;18.37;9.95;;;;;;;8.50;100.00;97312.63;4456529;32;34970;-81
2022/04/01 06:22:31;;;;;;;18.27;10.20;;;;;;;8.52;100.00;97309.56;4465627;32;34353;-80
2022/04/01 06:25:20;;;;;;;20.40;9.75;;;;;;;7.91;100.00;97315.41;4467671;32;35007;-80
2022/04/01 06:28:23;;;;;;;19.45;10.23;;;;;;;8.09;100.00;97306.56;4470373;31;35508;-81
2022/04/01 06:31:12;;;;;;;17.60;8.80;;;;;;;7.70;100.00;97310.22;4458738;32;34656;-80
2022/04/01 06:34:37;;;;;;;25.75;13.57;;;;;;;8.30;100.00;97316.41;4458197;32;35190;-79
2022/04/01 06:37:28;;;;;;;24.65;12.57;;;;;;;8.06;100.00;97323.63;4463832;32;34915;-79
2022/04/01 06:40:17;;;;;;;19.42;10.27;;;;;;;8.74;100.00;97325.31;4469475;32;34073;-80
2022/04/01 06:43:04;;;;;;;15.02;8.70;;;;;;;8.65;100.00;97323.91;4479825;32;34258;-79
2022/04/01 06:45:52;;;;;;;17.37;8.88;;;;;;;8.48;100.00;97328.59;4456461;31;33441;-79
2022/04/01 06:48:41;;;;;;;18.02;9.18;;;;;;;8.25;100.00;97324.84;4466139;32;35917;-79
2022/04/01 06:51:30;;;;;;;16.52;8.45;;;;;;;8.81;100.00;97324.66;4469913;32;34366;-80
2022/04/01 06:54:31;;;;;;;14.90;8.02;;;;;;;8.66;100.00;97318.09;4481314;32;33649;-79
2022/04/01 06:57:31;;;;;;;14.10;7.67;;;;;;;8.88;100.00;97326.75;4469409;32;35475;-81
2022/04/01 07:00:19;;;;;;;19.58;8.85;;;;;;;8.81;100.00;97327.41;4477807;32;34924;-80
2022/04/01 07:03:07;;;;;;;18.02;7.95;;;;;;;8.88;100.00;97324.84;4469069;32;34016;-83
2022/04/01 07:05:53;;;;;;;17.65;9.40;;;;;;;8.55;100.00;97326.03;4469350;32;34984;-80
2022/04/01 07:08:40;;;;;;;13.80;7.20;;;;;;;8.52;100.00;97321.28;4471969;32;35589;-81
2022/04/01 07:11:26;;;;;;;15.68;7.25;;;;;;;8.67;100.00;97330.59;4483160;32;33795;-81
2022/04/01 07:14:13;;;;;;;11.82;6.25;;;;;;;8.52;100.00;97334.13;4479258;32;35514;-82
2022/04/01 07:16:59;;;;;;;9.10;5.47;;;;;;;8.54;100.00;97334.59;4472405;32;34161;-82
2022/04/01 07:19:47;;;;;;;13.50;5.55;;;;;;;8.34;100.00;97331.75;4482625;32;34666;-82
2022/04/01 07:22:36;;;;;;;10.85;5.68;;;;;;;8.24;100.00;97345.09;4472791;32;35975;-81
2022/04/01 07:25:27;;;;;;;8.85;5.32;;;;;;;7.95;100.00;97349.03;4472616;32;35468;-81
2022/04/01 07:28:13;;;;;;;10.65;5.62;;;;;;;7.41;100.00;97353.03;4472414;32;34959;-80
2022/04/01 07:32:29;;;;;;;12.13;6.22;;;;;;;7.05;100.00;97343.78;4484963;32;35568;-82
2022/04/01 07:34:21;;;;;;;12.32;6.55;;;;;;;6.84;100.00;97340.44;4475964;32;35977;-82
2022/04/01 07:37:09;;;;;;;13.68;7.43;;;;;;;6.92;100.00;97344.97;4464796;32;34595;-81
2022/04/01 07:39:59;;;;;;;15.13;6.82;;;;;;;6.70;100.00;97341.59;4481394;32;34225;-82
2022/04/01 07:42:45;;;;;;;13.38;8.00;;;;;;;6.81;100.00;97347.38;4461481;31;34233;-81
2022/04/01 07:45:34;;;;;;;12.90;7.57;;;;;;;7.03;100.00;97348.00;4466241;32;35655;-82
2022/04/01 07:48:21;;;;;;;13.32;7.18;;;;;;;6.76;100.00;97353.03;4467530;31;35513;-80
2022/04/01 07:51:07;;;;;;;10.80;5.50;;;;;;;7.21;100.00;97355.56;4465722;32;34513;-80
2022/04/01 07:53:53;;;;;;;13.65;6.37;;;;;;;6.93;100.00;97360.16;4469082;32;34197;-81
2022/04/01 07:56:40;;;;;;;9.98;5.93;;;;;;;6.86;100.00;97354.47;4456975;32;35958;-81
2022/04/01 07:59:27;;;;;;;10.32;5.93;;;;;;;7.03;100.00;97356.97;4479354;31;35521;-81
2022/04/01 08:02:14;;;;;;;10.43;5.90;;;;;;;7.03;100.00;97362.44;4469544;32;34148;-83
2022/04/01 08:05:00;;;;;;;11.45;5.37;;;;;;;7.11;100.00;97371.59;4463884;32;35074;-84
2022/04/01 08:07:47;;;;;;;10.60;6.55;;;;;;;6.70;100.00;97373.44;4478505;32;34719;-82
2022/04/01 08:10:33;;;;;;;10.70;6.20;;;;;;;6.36;100.00;97369.25;4480297;32;34648;-84
2022/04/01 08:13:19;;;;;;;12.65;6.57;;;;;;;6.27;100.00;97372.06;4446818;32;32790;-87
2022/04/01 08:16:05;;;;;;;11.70;6.30;;;;;;;6.26;100.00;97384.06;4480053;32;34624;-84
2022/04/01 08:18:51;;;;;;;8.93;5.60;;;;;;;6.44;100.00;97380.00;4469769;32;33682;-87
2022/04/01 08:21:38;;;;;;;11.50;5.65;;;;;;;6.43;100.00;97378.44;4477796;32;35453;-83
2022/04/01 08:24:24;;;;;;;9.85;4.97;;;;;;;6.47;100.00;97382.06;4457307;32;32939;-85
2022/04/01 08:27:11;;;;;;;7.87;4.55;;;;;;;6.76;100.00;97383.75;4468846;32;34454;-87
2022/04/01 08:29:59;;;;;;;9.55;5.65;;;;;;;6.60;100.00;97382.84;4468463;32;34449;-83
2022/04/01 08:32:46;;;;;;;9.90;5.47;;;;;;;6.29;100.00;97399.72;4466813;32;34657;-80
2022/04/01 08:35:33;;;;;;;12.48;5.12;;;;;;;6.25;100.00;97401.50;4467475;32;35112;-82
2022/04/01 08:38:19;;;;;;;22.90;6.20;;;;;;;6.39;100.00;97406.66;4457742;32;34274;-82
2022/04/01 08:41:05;;;;;;;10.13;5.90;;;;;;;6.44;100.00;97409.16;4477452;32;36022;-81
2022/04/01 08:43:52;;;;;;;9.65;5.53;;;;;;;6.31;100.00;97406.38;4470287;32;34107;-82
2022/04/01 08:46:39;;;;;;;11.12;5.78;;;;;;;6.22;100.00;97419.28;4470878;32;34041;-80
2022/04/01 08:49:26;;;;;;;12.45;5.65;;;;;;;6.38;100.00;97413.22;4482374;32;34644;-82
2022/04/01 08:52:12;;;;;;;13.40;6.53;;;;;;;6.26;100.00;97425.66;4483912;32;34964;-81
2022/04/01 08:55:07;;;;;;;13.23;6.47;;;;;;;6.10;100.00;97432.06;4471061;32;34537;-81
2022/04/01 08:57:53;;;;;;;10.57;5.50;;;;;;;6.41;100.00;97437.03;4469742;32;34114;-81
2022/04/01 09:00:40;;;;;;;10.93;6.55;;;;;;;6.21;100.00;97433.25;4470674;32;34708;-81
2022/04/01 09:03:27;;;;;;;11.82;5.78;;;;;;;6.11;100.00;97437.16;4482757;32;35779;-81
2022/04/01 09:06:20;;;;;;;12.13;6.70;;;;;;;6.14;100.00;97438.41;4468778;32;34629;-80
2022/04/01 09:09:22;;;;;;;11.10;6.07;;;;;;;5.98;100.00;97443.72;4468931;32;34134;-81
2022/04/01 09:12:16;;;;;;;10.43;5.87;;;;;;;5.99;100.00;97431.69;4467411;32;35222;-82
2022/04/01 09:15:03;;;;;;;10.68;6.40;;;;;;;5.96;100.00;97437.81;4467884;32;35024;-83
2022/04/01 09:17:51;;;;;;;10.55;5.32;;;;;;;5.97;100.00;97440.16;4466021;32;33179;-85
2022/04/01 09:20:50;;;;;;;9.38;4.90;;;;;;;6.07;100.00;97438.97;4480633;32;35207;-88
2022/04/01 09:23:38;;;;;;;10.75;5.97;;;;;;;5.87;100.00;97435.91;4457969;32;34366;-88
2022/04/01 09:26:38;;;;;;;9.90;5.18;;;;;;;5.78;100.00;97440.66;4469697;32;35022;-85
2022/04/01 09:29:25;;;;;;;9.77;5.20;;;;;;;6.13;100.00;97448.50;4458541;32;34085;-89
2022/04/01 09:32:11;;;;;;;11.65;5.55;;;;;;;6.08;100.00;97446.00;4470011;32;33760;-83
2022/04/01 09:34:57;;;;;;;10.52;5.07;;;;;;;6.09;100.00;97453.03;4469420;32;34604;-86
2022/04/01 09:37:45;;;;;;;11.50;5.45;;;;;;;6.32;100.00;97445.28;4481726;32;36401;-87
2022/04/01 09:40:35;;;;;;;10.88;5.10;;;;;;;6.14;100.00;97450.09;4470293;32;34109;-86
2022/04/01 09:43:25;;;;;;;9.05;4.90;;;;;;;6.08;100.00;97462.31;4481809;32;34242;-85
2022/04/01 09:46:25;;;;;;;14.35;7.22;;;;;;;5.74;100.00;97453.28;4469413;32;35298;-85
2022/04/01 09:49:29;;;;;;;11.25;6.20;;;;;;;5.69;100.00;97458.13;4480586;32;34960;-89
2022/04/01 09:52:22;;;;;;;11.63;6.07;;;;;;;5.49;100.00;97457.00;4459994;32;34024;-85
2022/04/01 09:55:09;;;;;;;10.13;5.72;;;;;;;5.80;100.00;97465.53;4464883;31;34155;-81
2022/04/01 09:57:56;;;;;;;11.12;6.05;;;;;;;5.61;100.00;97466.03;4476177;31;35382;-78
2022/04/01 10:00:44;;;;;;;13.35;5.80;;;;;;;5.67;100.00;97465.84;4468924;32;34795;-79
2022/04/01 10:03:30;;;;;;;10.52;6.10;;;;;;;6.13;100.00;97464.81;4479324;32;34566;-82
2022/04/01 10:06:17;;;;;;;12.02;7.10;;;;;;;5.64;100.00;97459.94;4470429;31;35082;-80
2022/04/01 10:09:07;;;;;;;12.80;7.25;;;;;;;5.57;100.00;97470.53;4468908;32;34462;-88
2022/04/01 10:11:53;;;;;;;12.18;6.68;;;;;;;5.73;100.00;97484.31;4481254;32;34949;-85
2022/04/01 10:14:43;;;;;;;14.75;8.90;;;;;;;5.73;100.00;97478.87;4462528;32;34608;-87
2022/04/01 10:17:43;;;;;;;14.75;8.27;;;;;;;5.50;100.00;97472.97;4465970;32;34105;-85
2022/04/01 10:20:33;;;;;;;15.25;8.18;;;;;;;5.72;100.00;97477.31;4471647;32;35525;-84
2022/04/01 10:23:21;;;;;;;13.77;7.68;;;;;;;5.72;100.00;97477.31;4473616;32;36014;-85
2022/04/01 10:26:09;;;;;;;16.12;8.75;;;;;;;5.99;100.00;97489.56;4473449;32;34686;-84
2022/04/01 10:28:56;;;;;;;17.02;10.88;;;;;;;5.75;100.00;97484.78;4466349;32;33667;-81
2022/04/01 10:31:53;;;;;;;17.12;10.10;;;;;;;5.62;100.00;97491.28;4465092;32;35226;-80
2022/04/01 10:34:46;;;;;;;17.27;9.63;;;;;;;5.53;100.00;97490.53;4456495;32;35891;-80
2022/04/01 10:37:37;;;;;;;17.45;9.13;;;;;;;5.34;100.00;97494.47;4464708;32;34122;-79
2022/04/01 10:40:35;;;;;;;16.15;9.60;;;;;;;5.32;100.00;97491.31;4456372;32;33589;-80
2022/04/01 10:43:27;;;;;;;19.15;11.52;;;;;;;5.45;100.00;97507.69;4450445;32;34590;-77
2022/04/01 10:46:15;;;;;;;19.37;10.65;;;;;;;5.29;100.00;97518.31;4456510;32;34933;-79
2022/04/01 10:52:19;;;;;;;20.80;11.23;;;;;;;5.48;100.00;97509.75;4484622;31;34080;-78
2022/04/01 10:55:12;;;;;;;20.25;13.00;;;;;;;5.70;100.00;97512.16;4456349;32;34287;-78
2022/04/01 10:58:08;;;;;;;19.35;11.18;;;;;;;5.53;100.00;97515.00;4468348;32;34279;-79
2022/04/01 11:00:57;;;;;;;19.40;12.13;;;;;;;5.67;100.00;97518.25;4455139;32;34241;-79
2022/04/01 11:03:51;;;;;;;19.00;11.38;;;;;;;5.95;100.00;97520.47;4477586;32;34007;-82
2022/04/01 11:07:01;;;;;;;20.70;13.48;;;;;;;5.80;100.00;97521.81;4476055;32;35371;-84
2022/04/01 11:09:57;;;;;;;19.75;11.10;;;;;;;5.70;100.00;97517.59;4480687;32;34952;-84
2022/04/01 11:12:50;;;;;;;19.20;11.05;;;;;;;5.71;100.00;97524.59;4469389;32;34512;-83
2022/04/01 11:15:36;;;;;;;20.02;10.80;;;;;;;5.70;100.00;97520.31;4455019;32;33778;-78
2022/04/01 11:18:23;;;;;;;19.30;11.20;;;;;;;6.07;100.00;97521.31;4459805;32;33899;-80
2022/04/01 11:21:28;;;;;;;19.60;12.13;;;;;;;5.84;100.00;97526.28;4479836;32;35932;-80
2022/04/01 11:24:29;;;;;;;19.92;12.98;;;;;;;5.98;100.00;97536.12;4447362;32;35098;-80
2022/04/01 11:27:25;;;;;;;17.92;10.55;;;;;;;5.81;100.00;97524.22;4470622;32;34255;-80
2022/04/01 11:30:17;;;;;;;19.23;10.13;;;;;;;5.94;100.00;97532.47;4456363;31;34332;-81
2022/04/01 11:33:14;;;;;;;20.02;11.32;;;;;;;6.21;100.00;97529.22;4456543;32;35159;-80
2022/04/01 11:36:00;;;;;;;19.62;12.50;;;;;;;5.82;100.00;97530.44;4464857;31;34046;-79
2022/04/01 11:38:46;;;;;;;19.77;11.85;;;;;;;6.24;100.00;97525.81;4472416;31;33803;-79
2022/04/01 11:41:47;;;;;;;19.65;11.25;;;;;;;5.63;100.00;97536.31;4479375;32;34339;-82
2022/04/01 11:44:33;;;;;;;20.65;12.32;;;;;;;6.21;100.00;97526.50;4460542;32;35057;-80
2022/04/01 11:47:37;;;;;;;21.45;12.65;;;;;;;6.31;100.00;97541.59;4466637;32;33238;-80
2022/04/01 11:50:24;;;;;;;21.12;12.90;;;;;;;6.00;100.00;97522.97;4479762;31;34907;-80
2022/04/01 11:53:35;;;;;;;19.63;10.70;;;;;;;6.36;100.00;97527.00;4477653;31;35056;-82
2022/04/01 11:56:23;;;;;;;16.55;11.27;;;;;;;6.22;100.00;97521.84;4478842;31;34951;-81
2022/04/01 11:59:09;;;;;;;19.75;11.77;;;;;;;5.69;100.00;97531.50;4465152;32;34627;-79
2022/04/01 12:02:07;;;;;;;18.40;10.88;;;;;;;5.76;100.00;97529.84;4452192;32;34181;-79
2022/04/01 12:04:55;;;;;;;20.62;12.00;;;;;;;6.22;100.00;97519.13;4447713;32;35578;-79
2022/04/01 12:10:55;;;;;;;17.85;10.68;;;;;;;6.45;100.00;97514.09;4477947;32;34689;-80
2022/04/01 12:13:55;;;;;;;17.95;11.18;;;;;;;6.41;100.00;97513.97;4463417;32;34237;-80
2022/04/01 12:16:43;;;;;;;18.83;12.60;;;;;;;6.63;100.00;97515.53;4467375;32;34394;-78
2022/04/01 12:19:32;;;;;;;14.93;9.60;;;;;;;6.53;100.00;97521.38;4465799;32;34616;-80
2022/04/01 12:22:22;;;;;;;17.87;13.50;;;;;;;6.38;100.00;97527.47;4481069;32;34453;-81
2022/04/01 12:25:09;;;;;;;17.40;10.30;;;;;;;6.20;100.00;97532.25;4466481;32;33733;-80
2022/04/01 12:28:09;;;;;;;16.10;10.82;;;;;;;6.11;100.00;97526.88;4458421;32;35504;-79
2022/04/01 12:30:56;;;;;;;18.17;10.50;;;;;;;6.14;100.00;97528.94;4457468;32;34890;-80
2022/04/01 12:33:45;;;;;;;20.92;11.20;;;;;;;5.85;100.00;97538.72;4468905;32;34042;-79
2022/04/01 12:36:34;;;;;;;17.45;10.88;;;;;;;5.98;100.00;97538.84;4467558;32;34171;-79
2022/04/01 12:39:21;;;;;;;17.75;11.88;;;;;;;5.92;100.00;97545.56;4463047;32;35681;-83
2022/04/01 12:42:09;;;;;;;15.50;9.27;;;;;;;6.16;100.00;97553.87;4480220;32;36106;-81
2022/04/01 12:44:56;;;;;;;17.37;10.38;;;;;;;6.07;100.00;97559.38;4468487;32;34545;-80
2022/04/01 12:47:42;;;;;;;21.02;12.45;;;;;;;6.25;100.00;97560.03;4480156;32;33706;-81
2022/04/01 12:50:31;;;;;;;22.65;13.25;;;;;;;6.46;100.00;97553.75;4468021;32;35557;-81
2022/04/01 12:53:17;;;;;;;21.48;14.07;;;;;;;6.78;100.00;97557.62;4456563;32;35548;-81
2022/04/01 12:56:22;;;;;;;20.77;12.57;;;;;;;6.19;100.00;97561.37;4478703;32;34305;-81
2022/04/01 12:59:12;;;;;;;25.20;18.35;;;;;;;6.32;100.00;97559.50;4455968;32;34321;-81
2022/04/01 13:02:03;;;;;;;23.38;13.80;;;;;;;5.83;100.00;97560.03;4467030;32;34709;-81
2022/04/01 13:04:51;;;;;;;24.83;15.93;;;;;;;5.78;100.00;97570.28;4457370;32;35633;-81
2022/04/01 13:07:39;;;;;;;26.37;16.40;;;;;;;5.80;100.00;97571.53;4467163;32;34259;-81
2022/04/01 13:10:26;;;;;;;24.83;16.70;;;;;;;5.90;100.00;97575.81;4481351;32;33001;-82
2022/04/01 13:13:17;;;;;;;25.98;17.12;;;;;;;5.72;100.00;97575.13;4457239;32;34732;-80